sensor_id;sensor_type;location;lat;lon;timestamp;temperature;humidity
71367;DHT22;60030;52.274;8.040;2022-08-21T00:00:26;19.50;99.90
71367;DHT22;60030;52.274;8.040;2022-08-21T00:02:56;19.50;99.90
71367;DHT22;60030;52.274;8.040;2022-08-21T00:05:25;19.40;99.90
71367;DHT22;60030;52.274;8.040;2022-08-21T00:07:52;19.40;99.90
71367;DHT22;60030;52.274;8.040;2022-08-21T00:10:20;19.40;99.90
71367;DHT22;60030;52.274;8.040;2022-08-21T00:12:48;19.50;99.90
71367;DHT22;60030;52.274;8.040;2022-08-21T00:15:21;19.50;99.90
71367;DHT22;60030;52.274;8.040;2022-08-21T00:17:48;19.50;99.90
71367;DHT22;60030;52.274;8.040;2022-08-21T00:20:16;19.50;99.90
71367;DHT22;60030;52.274;8.040;2022-08-21T00:22:44;19.30;99.90
71367;DHT22;60030;52.274;8.040;2022-08-21T00:25:12;19.30;99.90
71367;DHT22;60030;52.274;8.040;2022-08-21T00:27:39;19.20;99.90
71367;DHT22;60030;52.274;8.040;2022-08-21T00:30:09;19.20;99.90
71367;DHT22;60030;52.274;8.040;2022-08-21T00:32:39;19.20;99.90
71367;DHT22;60030;52.274;8.040;2022-08-21T00:35:08;19.20;99.90
71367;DHT22;60030;52.274;8.040;2022-08-21T00:37:37;19.10;99.90
71367;DHT22;60030;52.274;8.040;2022-08-21T00:40:06;19.20;99.90
71367;DHT22;60030;52.274;8.040;2022-08-21T00:42:36;19.30;99.90
71367;DHT22;60030;52.274;8.040;2022-08-21T00:45:09;19.10;99.90
71367;DHT22;60030;52.274;8.040;2022-08-21T00:47:38;19.10;99.90
71367;DHT22;60030;52.274;8.040;2022-08-21T00:50:07;19.10;99.90
71367;DHT22;60030;52.274;8.040;2022-08-21T00:52:36;19.10;99.90
71367;DHT22;60030;52.274;8.040;2022-08-21T00:55:07;19.20;99.90
71367;DHT22;60030;52.274;8.040;2022-08-21T00:57:38;19.20;99.90
71367;DHT22;60030;52.274;8.040;2022-08-21T01:00:09;19.10;99.90
71367;DHT22;60030;52.274;8.040;2022-08-21T01:02:38;19.00;99.90
71367;DHT22;60030;52.274;8.040;2022-08-21T01:05:08;19.00;99.90
71367;DHT22;60030;52.274;8.040;2022-08-21T01:07:35;19.00;99.90
71367;DHT22;60030;52.274;8.040;2022-08-21T01:10:03;19.00;99.90
71367;DHT22;60030;52.274;8.040;2022-08-21T01:12:30;19.00;99.90
71367;DHT22;60030;52.274;8.040;2022-08-21T01:14:57;19.00;99.90
71367;DHT22;60030;52.274;8.040;2022-08-21T01:17:26;18.90;99.90
71367;DHT22;60030;52.274;8.040;2022-08-21T01:19:58;18.90;99.90
71367;DHT22;60030;52.274;8.040;2022-08-21T01:22:27;18.90;99.90
71367;DHT22;60030;52.274;8.040;2022-08-21T01:24:54;19.00;99.90
71367;DHT22;60030;52.274;8.040;2022-08-21T01:27:21;19.00;99.90
71367;DHT22;60030;52.274;8.040;2022-08-21T01:29:53;19.10;99.90
71367;DHT22;60030;52.274;8.040;2022-08-21T01:32:21;19.10;99.90
71367;DHT22;60030;52.274;8.040;2022-08-21T01:34:50;19.10;99.90
71367;DHT22;60030;52.274;8.040;2022-08-21T01:37:19;19.10;99.90
71367;DHT22;60030;52.274;8.040;2022-08-21T01:39:48;19.10;99.90
71367;DHT22;60030;52.274;8.040;2022-08-21T01:42:15;19.10;99.90
71367;DHT22;60030;52.274;8.040;2022-08-21T01:44:43;19.10;99.90
71367;DHT22;60030;52.274;8.040;2022-08-21T01:47:12;19.10;99.90
71367;DHT22;60030;52.274;8.040;2022-08-21T01:49:40;19.10;99.90
71367;DHT22;60030;52.274;8.040;2022-08-21T01:52:09;19.10;99.90
71367;DHT22;60030;52.274;8.040;2022-08-21T01:54:37;19.10;99.90
71367;DHT22;60030;52.274;8.040;2022-08-21T01:57:06;19.00;99.90
71367;DHT22;60030;52.274;8.040;2022-08-21T01:59:33;19.00;99.90
71367;DHT22;60030;52.274;8.040;2022-08-21T02:02:00;19.00;99.90
71367;DHT22;60030;52.274;8.040;2022-08-21T02:04:27;19.10;99.90
71367;DHT22;60030;52.274;8.040;2022-08-21T02:06:54;19.10;99.90
71367;DHT22;60030;52.274;8.040;2022-08-21T02:09:21;19.00;99.90
71367;DHT22;60030;52.274;8.040;2022-08-21T02:11:48;19.00;99.90
71367;DHT22;60030;52.274;8.040;2022-08-21T02:14:17;19.00;99.90
71367;DHT22;60030;52.274;8.040;2022-08-21T02:16:44;19.00;99.90
71367;DHT22;60030;52.274;8.040;2022-08-21T02:19:14;19.00;99.90
71367;DHT22;60030;52.274;8.040;2022-08-21T02:21:41;19.00;99.90
71367;DHT22;60030;52.274;8.040;2022-08-21T02:24:09;18.90;99.90
71367;DHT22;60030;52.274;8.040;2022-08-21T02:26:36;18.90;99.90
71367;DHT22;60030;52.274;8.040;2022-08-21T02:29:04;18.90;99.90
71367;DHT22;60030;52.274;8.040;2022-08-21T02:31:32;19.00;99.90
71367;DHT22;60030;52.274;8.040;2022-08-21T02:34:00;18.90;99.90
71367;DHT22;60030;52.274;8.040;2022-08-21T02:36:27;19.00;99.90
71367;DHT22;60030;52.274;8.040;2022-08-21T02:38:54;19.00;99.90
71367;DHT22;60030;52.274;8.040;2022-08-21T02:41:22;18.90;99.90
71367;DHT22;60030;52.274;8.040;2022-08-21T02:43:49;18.90;99.90
71367;DHT22;60030;52.274;8.040;2022-08-21T02:46:18;18.90;99.90
71367;DHT22;60030;52.274;8.040;2022-08-21T02:48:48;18.90;99.90
71367;DHT22;60030;52.274;8.040;2022-08-21T02:51:17;18.90;99.90
71367;DHT22;60030;52.274;8.040;2022-08-21T02:53:45;18.90;99.90
71367;DHT22;60030;52.274;8.040;2022-08-21T02:56:15;18.90;99.90
71367;DHT22;60030;52.274;8.040;2022-08-21T02:58:45;18.90;99.90
71367;DHT22;60030;52.274;8.040;2022-08-21T03:01:13;18.90;99.90
71367;DHT22;60030;52.274;8.040;2022-08-21T03:03:41;18.90;99.90
71367;DHT22;60030;52.274;8.040;2022-08-21T03:06:12;18.90;99.90
71367;DHT22;60030;52.274;8.040;2022-08-21T03:08:40;18.80;99.90
71367;DHT22;60030;52.274;8.040;2022-08-21T03:11:07;18.80;99.90
71367;DHT22;60030;52.274;8.040;2022-08-21T03:13:34;18.80;99.90
71367;DHT22;60030;52.274;8.040;2022-08-21T03:16:02;18.80;99.90
71367;DHT22;60030;52.274;8.040;2022-08-21T03:18:29;18.80;99.90
71367;DHT22;60030;52.274;8.040;2022-08-21T03:20:56;18.80;99.90
71367;DHT22;60030;52.274;8.040;2022-08-21T03:23:24;18.80;99.90
71367;DHT22;60030;52.274;8.040;2022-08-21T03:25:52;18.70;99.90
71367;DHT22;60030;52.274;8.040;2022-08-21T03:28:20;18.70;99.90
71367;DHT22;60030;52.274;8.040;2022-08-21T03:30:50;18.70;99.90
71367;DHT22;60030;52.274;8.040;2022-08-21T03:33:18;18.70;99.90
71367;DHT22;60030;52.274;8.040;2022-08-21T03:35:49;18.60;99.90
71367;DHT22;60030;52.274;8.040;2022-08-21T03:38:19;18.60;99.90
71367;DHT22;60030;52.274;8.040;2022-08-21T03:40:47;18.50;99.90
71367;DHT22;60030;52.274;8.040;2022-08-21T03:43:14;18.50;99.90
71367;DHT22;60030;52.274;8.040;2022-08-21T03:45:42;18.50;99.90
71367;DHT22;60030;52.274;8.040;2022-08-21T03:48:09;18.50;99.90
71367;DHT22;60030;52.274;8.040;2022-08-21T03:50:40;18.40;99.90
71367;DHT22;60030;52.274;8.040;2022-08-21T03:53:09;18.40;99.90
71367;DHT22;60030;52.274;8.040;2022-08-21T03:55:36;18.40;99.90
71367;DHT22;60030;52.274;8.040;2022-08-21T03:58:05;18.40;99.90
71367;DHT22;60030;52.274;8.040;2022-08-21T04:00:32;18.30;99.90
71367;DHT22;60030;52.274;8.040;2022-08-21T04:02:59;18.30;99.90
71367;DHT22;60030;52.274;8.040;2022-08-21T04:05:26;18.30;99.90
71367;DHT22;60030;52.274;8.040;2022-08-21T04:07:57;18.20;99.90
71367;DHT22;60030;52.274;8.040;2022-08-21T04:10:25;18.20;99.90
71367;DHT22;60030;52.274;8.040;2022-08-21T04:12:53;18.20;99.90
71367;DHT22;60030;52.274;8.040;2022-08-21T04:15:23;18.20;99.90
71367;DHT22;60030;52.274;8.040;2022-08-21T04:17:52;18.10;99.90
71367;DHT22;60030;52.274;8.040;2022-08-21T04:20:21;18.10;99.90
71367;DHT22;60030;52.274;8.040;2022-08-21T04:22:49;18.10;99.90
71367;DHT22;60030;52.274;8.040;2022-08-21T04:25:18;18.10;99.90
71367;DHT22;60030;52.274;8.040;2022-08-21T04:27:46;18.00;99.90
71367;DHT22;60030;52.274;8.040;2022-08-21T04:30:15;18.00;99.90
71367;DHT22;60030;52.274;8.040;2022-08-21T04:32:45;18.00;99.90
71367;DHT22;60030;52.274;8.040;2022-08-21T04:35:13;18.00;99.90
71367;DHT22;60030;52.274;8.040;2022-08-21T04:37:42;18.00;99.90
71367;DHT22;60030;52.274;8.040;2022-08-21T04:40:10;18.00;99.90
71367;DHT22;60030;52.274;8.040;2022-08-21T04:42:43;18.00;99.90
71367;DHT22;60030;52.274;8.040;2022-08-21T04:45:17;18.00;99.90
71367;DHT22;60030;52.274;8.040;2022-08-21T04:47:48;18.00;99.90
71367;DHT22;60030;52.274;8.040;2022-08-21T04:50:15;18.00;99.90
71367;DHT22;60030;52.274;8.040;2022-08-21T04:52:56;18.00;99.90
71367;DHT22;60030;52.274;8.040;2022-08-21T04:55:24;18.00;99.90
71367;DHT22;60030;52.274;8.040;2022-08-21T04:57:53;18.00;99.90
71367;DHT22;60030;52.274;8.040;2022-08-21T05:00:22;18.00;99.90
71367;DHT22;60030;52.274;8.040;2022-08-21T05:02:53;18.00;99.90
71367;DHT22;60030;52.274;8.040;2022-08-21T05:05:24;18.10;99.90
71367;DHT22;60030;52.274;8.040;2022-08-21T05:07:52;18.10;99.90
71367;DHT22;60030;52.274;8.040;2022-08-21T05:10:20;18.00;99.90
71367;DHT22;60030;52.274;8.040;2022-08-21T05:12:47;18.10;99.90
71367;DHT22;60030;52.274;8.040;2022-08-21T05:15:15;18.10;99.90
71367;DHT22;60030;52.274;8.040;2022-08-21T05:17:43;18.10;99.90
71367;DHT22;60030;52.274;8.040;2022-08-21T05:20:13;18.10;99.90
71367;DHT22;60030;52.274;8.040;2022-08-21T05:22:40;18.10;99.90
71367;DHT22;60030;52.274;8.040;2022-08-21T05:25:09;18.10;99.90
71367;DHT22;60030;52.274;8.040;2022-08-21T05:27:37;18.10;99.90
71367;DHT22;60030;52.274;8.040;2022-08-21T05:30:06;18.20;99.90
71367;DHT22;60030;52.274;8.040;2022-08-21T05:32:35;18.20;99.90
71367;DHT22;60030;52.274;8.040;2022-08-21T05:35:05;18.30;99.90
71367;DHT22;60030;52.274;8.040;2022-08-21T05:37:34;18.30;99.90
71367;DHT22;60030;52.274;8.040;2022-08-21T05:40:03;18.30;99.90
71367;DHT22;60030;52.274;8.040;2022-08-21T05:42:31;18.40;99.90
71367;DHT22;60030;52.274;8.040;2022-08-21T05:44:58;18.40;99.90
71367;DHT22;60030;52.274;8.040;2022-08-21T05:47:25;18.50;99.90
71367;DHT22;60030;52.274;8.040;2022-08-21T05:49:52;18.50;99.90
71367;DHT22;60030;52.274;8.040;2022-08-21T05:52:20;18.50;99.90
71367;DHT22;60030;52.274;8.040;2022-08-21T05:54:49;18.50;99.90
71367;DHT22;60030;52.274;8.040;2022-08-21T05:57:19;18.60;99.90
71367;DHT22;60030;52.274;8.040;2022-08-21T05:59:46;18.60;99.90
71367;DHT22;60030;52.274;8.040;2022-08-21T06:02:13;18.60;99.90
71367;DHT22;60030;52.274;8.040;2022-08-21T06:04:41;18.60;99.90
71367;DHT22;60030;52.274;8.040;2022-08-21T06:07:08;18.70;99.90
71367;DHT22;60030;52.274;8.040;2022-08-21T06:09:35;18.70;99.90
71367;DHT22;60030;52.274;8.040;2022-08-21T06:12:05;18.70;99.90
71367;DHT22;60030;52.274;8.040;2022-08-21T06:14:34;18.70;99.90
71367;DHT22;60030;52.274;8.040;2022-08-21T06:17:03;18.60;99.90
71367;DHT22;60030;52.274;8.040;2022-08-21T06:19:30;18.50;99.90
71367;DHT22;60030;52.274;8.040;2022-08-21T06:21:57;18.60;99.90
71367;DHT22;60030;52.274;8.040;2022-08-21T06:24:25;18.80;99.90
71367;DHT22;60030;52.274;8.040;2022-08-21T06:26:52;18.80;99.90
71367;DHT22;60030;52.274;8.040;2022-08-21T06:29:21;18.90;99.90
71367;DHT22;60030;52.274;8.040;2022-08-21T06:31:50;18.90;99.90
71367;DHT22;60030;52.274;8.040;2022-08-21T06:34:17;19.00;99.90
71367;DHT22;60030;52.274;8.040;2022-08-21T06:36:45;19.00;99.90
71367;DHT22;60030;52.274;8.040;2022-08-21T06:39:12;19.00;99.90
71367;DHT22;60030;52.274;8.040;2022-08-21T06:41:39;19.00;99.90
71367;DHT22;60030;52.274;8.040;2022-08-21T06:44:06;19.10;99.90
71367;DHT22;60030;52.274;8.040;2022-08-21T06:46:35;19.10;99.90
71367;DHT22;60030;52.274;8.040;2022-08-21T06:49:03;19.20;99.90
71367;DHT22;60030;52.274;8.040;2022-08-21T06:51:30;19.20;99.90
71367;DHT22;60030;52.274;8.040;2022-08-21T06:53:57;19.30;99.90
71367;DHT22;60030;52.274;8.040;2022-08-21T06:56:24;19.30;99.90
71367;DHT22;60030;52.274;8.040;2022-08-21T06:58:51;19.30;99.90
71367;DHT22;60030;52.274;8.040;2022-08-21T07:01:19;19.40;99.90
71367;DHT22;60030;52.274;8.040;2022-08-21T07:03:48;19.50;99.90
71367;DHT22;60030;52.274;8.040;2022-08-21T07:06:15;19.50;99.90
71367;DHT22;60030;52.274;8.040;2022-08-21T07:08:43;19.50;99.90
71367;DHT22;60030;52.274;8.040;2022-08-21T07:11:12;19.60;99.90
71367;DHT22;60030;52.274;8.040;2022-08-21T07:13:41;19.50;99.90
71367;DHT22;60030;52.274;8.040;2022-08-21T07:16:08;19.50;99.90
71367;DHT22;60030;52.274;8.040;2022-08-21T07:18:36;19.60;99.90
71367;DHT22;60030;52.274;8.040;2022-08-21T07:21:06;19.70;99.90
71367;DHT22;60030;52.274;8.040;2022-08-21T07:23:37;19.70;99.90
71367;DHT22;60030;52.274;8.040;2022-08-21T07:26:05;19.80;99.90
71367;DHT22;60030;52.274;8.040;2022-08-21T07:28:32;19.70;99.90
71367;DHT22;60030;52.274;8.040;2022-08-21T07:31:01;19.70;99.90
71367;DHT22;60030;52.274;8.040;2022-08-21T07:33:31;19.80;99.90
71367;DHT22;60030;52.274;8.040;2022-08-21T07:35:58;19.80;99.90
71367;DHT22;60030;52.274;8.040;2022-08-21T07:38:27;19.90;99.90
71367;DHT22;60030;52.274;8.040;2022-08-21T07:40:55;19.90;99.90
71367;DHT22;60030;52.274;8.040;2022-08-21T07:43:24;20.00;99.90
71367;DHT22;60030;52.274;8.040;2022-08-21T07:45:52;20.00;99.90
71367;DHT22;60030;52.274;8.040;2022-08-21T07:48:20;20.10;99.90
71367;DHT22;60030;52.274;8.040;2022-08-21T07:50:47;20.10;99.90
71367;DHT22;60030;52.274;8.040;2022-08-21T07:53:15;20.10;99.90
71367;DHT22;60030;52.274;8.040;2022-08-21T07:55:44;20.20;99.90
71367;DHT22;60030;52.274;8.040;2022-08-21T07:58:11;20.10;99.90
71367;DHT22;60030;52.274;8.040;2022-08-21T08:00:39;20.20;99.90
71367;DHT22;60030;52.274;8.040;2022-08-21T08:03:06;20.20;99.90
71367;DHT22;60030;52.274;8.040;2022-08-21T08:05:34;20.30;99.90
71367;DHT22;60030;52.274;8.040;2022-08-21T08:08:02;20.40;99.90
71367;DHT22;60030;52.274;8.040;2022-08-21T08:10:30;20.40;99.90
71367;DHT22;60030;52.274;8.040;2022-08-21T08:12:58;20.40;99.90
71367;DHT22;60030;52.274;8.040;2022-08-21T08:15:27;20.50;99.90
71367;DHT22;60030;52.274;8.040;2022-08-21T08:17:55;20.50;99.90
71367;DHT22;60030;52.274;8.040;2022-08-21T08:20:23;20.50;99.90
71367;DHT22;60030;52.274;8.040;2022-08-21T08:22:52;20.60;99.90
71367;DHT22;60030;52.274;8.040;2022-08-21T08:25:21;20.60;99.90
71367;DHT22;60030;52.274;8.040;2022-08-21T08:27:48;20.70;99.90
71367;DHT22;60030;52.274;8.040;2022-08-21T08:30:19;20.80;99.90
71367;DHT22;60030;52.274;8.040;2022-08-21T08:32:47;20.80;99.90
71367;DHT22;60030;52.274;8.040;2022-08-21T08:35:15;20.80;99.90
71367;DHT22;60030;52.274;8.040;2022-08-21T08:37:43;20.90;99.90
71367;DHT22;60030;52.274;8.040;2022-08-21T08:40:12;20.90;99.90
71367;DHT22;60030;52.274;8.040;2022-08-21T08:42:41;20.90;99.90
71367;DHT22;60030;52.274;8.040;2022-08-21T08:45:10;21.00;99.90
71367;DHT22;60030;52.274;8.040;2022-08-21T08:47:43;21.00;99.90
71367;DHT22;60030;52.274;8.040;2022-08-21T08:50:15;21.10;99.90
71367;DHT22;60030;52.274;8.040;2022-08-21T08:52:47;21.20;99.90
71367;DHT22;60030;52.274;8.040;2022-08-21T08:55:18;21.20;99.90
71367;DHT22;60030;52.274;8.040;2022-08-21T08:57:48;21.20;99.90
71367;DHT22;60030;52.274;8.040;2022-08-21T09:00:18;21.30;99.90
71367;DHT22;60030;52.274;8.040;2022-08-21T09:02:52;21.30;99.90
71367;DHT22;60030;52.274;8.040;2022-08-21T09:05:24;21.30;99.90
71367;DHT22;60030;52.274;8.040;2022-08-21T09:08:09;21.40;99.90
71367;DHT22;60030;52.274;8.040;2022-08-21T09:10:49;21.50;99.90
71367;DHT22;60030;52.274;8.040;2022-08-21T09:13:23;21.60;99.90
71367;DHT22;60030;52.274;8.040;2022-08-21T09:15:59;21.60;99.90
71367;DHT22;60030;52.274;8.040;2022-08-21T09:18:38;21.60;99.90
71367;DHT22;60030;52.274;8.040;2022-08-21T09:21:16;21.60;99.90
71367;DHT22;60030;52.274;8.040;2022-08-21T09:23:52;21.70;99.90
71367;DHT22;60030;52.274;8.040;2022-08-21T09:26:24;21.70;99.90
71367;DHT22;60030;52.274;8.040;2022-08-21T09:28:53;21.70;99.90
71367;DHT22;60030;52.274;8.040;2022-08-21T09:31:24;21.70;99.90
71367;DHT22;60030;52.274;8.040;2022-08-21T09:33:59;21.80;99.90
71367;DHT22;60030;52.274;8.040;2022-08-21T09:36:34;22.00;99.90
71367;DHT22;60030;52.274;8.040;2022-08-21T09:39:02;22.20;99.90
71367;DHT22;60030;52.274;8.040;2022-08-21T09:41:32;22.60;99.90
71367;DHT22;60030;52.274;8.040;2022-08-21T09:43:59;22.80;99.90
71367;DHT22;60030;52.274;8.040;2022-08-21T09:46:27;23.10;99.90
71367;DHT22;60030;52.274;8.040;2022-08-21T09:48:58;23.20;99.90
71367;DHT22;60030;52.274;8.040;2022-08-21T09:51:28;23.30;99.90
71367;DHT22;60030;52.274;8.040;2022-08-21T09:54:07;23.60;99.90
71367;DHT22;60030;52.274;8.040;2022-08-21T09:56:39;23.50;99.90
71367;DHT22;60030;52.274;8.040;2022-08-21T09:59:28;23.60;99.90
71367;DHT22;60030;52.274;8.040;2022-08-21T10:01:59;23.60;99.90
71367;DHT22;60030;52.274;8.040;2022-08-21T10:04:31;23.50;99.90
71367;DHT22;60030;52.274;8.040;2022-08-21T10:07:09;23.50;99.90
71367;DHT22;60030;52.274;8.040;2022-08-21T10:09:37;23.50;99.90
71367;DHT22;60030;52.274;8.040;2022-08-21T10:12:13;23.40;99.90
71367;DHT22;60030;52.274;8.040;2022-08-21T10:14:48;23.60;99.90
71367;DHT22;60030;52.274;8.040;2022-08-21T10:17:22;23.90;99.90
71367;DHT22;60030;52.274;8.040;2022-08-21T10:20:03;24.10;99.90
71367;DHT22;60030;52.274;8.040;2022-08-21T10:22:38;23.70;99.90
71367;DHT22;60030;52.274;8.040;2022-08-21T10:25:15;23.70;99.30
71367;DHT22;60030;52.274;8.040;2022-08-21T10:27:51;23.80;99.10
71367;DHT22;60030;52.274;8.040;2022-08-21T10:30:29;23.90;99.20
71367;DHT22;60030;52.274;8.040;2022-08-21T10:35:59;24.20;98.30
71367;DHT22;60030;52.274;8.040;2022-08-21T10:38:54;24.10;97.90
71367;DHT22;60030;52.274;8.040;2022-08-21T10:41:31;24.10;98.10
71367;DHT22;60030;52.274;8.040;2022-08-21T10:44:12;24.20;98.10
71367;DHT22;60030;52.274;8.040;2022-08-21T10:46:47;24.50;97.50
71367;DHT22;60030;52.274;8.040;2022-08-21T10:49:25;24.60;97.30
71367;DHT22;60030;52.274;8.040;2022-08-21T10:52:09;24.70;97.00
71367;DHT22;60030;52.274;8.040;2022-08-21T10:54:45;24.60;97.10
71367;DHT22;60030;52.274;8.040;2022-08-21T10:57:22;24.40;97.30
71367;DHT22;60030;52.274;8.040;2022-08-21T10:59:57;24.30;96.70
71367;DHT22;60030;52.274;8.040;2022-08-21T11:02:29;24.20;95.70
71367;DHT22;60030;52.274;8.040;2022-08-21T11:05:02;24.40;95.70
71367;DHT22;60030;52.274;8.040;2022-08-21T11:07:36;24.60;95.90
71367;DHT22;60030;52.274;8.040;2022-08-21T11:10:10;24.80;93.90
71367;DHT22;60030;52.274;8.040;2022-08-21T11:12:42;25.00;93.50
71367;DHT22;60030;52.274;8.040;2022-08-21T11:15:27;25.30;92.60
71367;DHT22;60030;52.274;8.040;2022-08-21T11:18:02;25.40;93.20
71367;DHT22;60030;52.274;8.040;2022-08-21T11:20:34;25.30;92.50
71367;DHT22;60030;52.274;8.040;2022-08-21T11:23:11;25.50;92.70
71367;DHT22;60030;52.274;8.040;2022-08-21T11:25:44;25.60;92.10
71367;DHT22;60030;52.274;8.040;2022-08-21T11:28:16;25.90;91.40
71367;DHT22;60030;52.274;8.040;2022-08-21T11:30:54;25.70;90.50
71367;DHT22;60030;52.274;8.040;2022-08-21T11:33:41;25.80;90.70
71367;DHT22;60030;52.274;8.040;2022-08-21T11:36:15;25.90;90.00
71367;DHT22;60030;52.274;8.040;2022-08-21T11:38:51;26.20;89.30
71367;DHT22;60030;52.274;8.040;2022-08-21T11:41:26;26.30;88.30
71367;DHT22;60030;52.274;8.040;2022-08-21T11:44:01;26.20;87.80
71367;DHT22;60030;52.274;8.040;2022-08-21T11:46:36;26.20;87.10
71367;DHT22;60030;52.274;8.040;2022-08-21T11:49:25;26.20;85.70
71367;DHT22;60030;52.274;8.040;2022-08-21T11:52:00;26.30;84.10
71367;DHT22;60030;52.274;8.040;2022-08-21T11:54:35;26.50;84.40
71367;DHT22;60030;52.274;8.040;2022-08-21T11:57:07;26.30;82.10
71367;DHT22;60030;52.274;8.040;2022-08-21T11:59:39;26.00;84.70
71367;DHT22;60030;52.274;8.040;2022-08-21T12:02:13;25.80;85.40
71367;DHT22;60030;52.274;8.040;2022-08-21T12:04:46;26.10;84.60
71367;DHT22;60030;52.274;8.040;2022-08-21T12:07:17;26.10;81.00
71367;DHT22;60030;52.274;8.040;2022-08-21T12:09:58;26.00;80.70
71367;DHT22;60030;52.274;8.040;2022-08-21T12:12:28;25.90;80.10
71367;DHT22;60030;52.274;8.040;2022-08-21T12:15:15;26.00;80.80
71367;DHT22;60030;52.274;8.040;2022-08-21T12:17:52;25.90;81.70
71367;DHT22;60030;52.274;8.040;2022-08-21T12:20:33;26.30;80.70
71367;DHT22;60030;52.274;8.040;2022-08-21T12:23:05;26.40;80.70
71367;DHT22;60030;52.274;8.040;2022-08-21T12:25:39;26.50;78.80
71367;DHT22;60030;52.274;8.040;2022-08-21T12:28:08;26.70;77.60
71367;DHT22;60030;52.274;8.040;2022-08-21T12:30:38;27.00;75.90
71367;DHT22;60030;52.274;8.040;2022-08-21T12:33:19;27.00;76.30
71367;DHT22;60030;52.274;8.040;2022-08-21T12:35:48;27.00;74.60
71367;DHT22;60030;52.274;8.040;2022-08-21T12:38:18;27.30;74.30
71367;DHT22;60030;52.274;8.040;2022-08-21T12:40:52;27.00;72.10
71367;DHT22;60030;52.274;8.040;2022-08-21T12:43:21;27.20;71.60
71367;DHT22;60030;52.274;8.040;2022-08-21T12:45:51;27.60;70.40
71367;DHT22;60030;52.274;8.040;2022-08-21T12:48:21;27.60;69.70
71367;DHT22;60030;52.274;8.040;2022-08-21T12:50:51;27.50;70.10
71367;DHT22;60030;52.274;8.040;2022-08-21T12:53:26;27.60;69.50
71367;DHT22;60030;52.274;8.040;2022-08-21T12:55:55;27.70;68.20
71367;DHT22;60030;52.274;8.040;2022-08-21T12:58:27;27.90;66.50
71367;DHT22;60030;52.274;8.040;2022-08-21T13:00:57;28.20;65.80
71367;DHT22;60030;52.274;8.040;2022-08-21T13:03:26;28.20;64.60
71367;DHT22;60030;52.274;8.040;2022-08-21T13:05:54;28.60;66.10
71367;DHT22;60030;52.274;8.040;2022-08-21T13:08:22;28.90;63.50
71367;DHT22;60030;52.274;8.040;2022-08-21T13:10:59;28.90;63.30
71367;DHT22;60030;52.274;8.040;2022-08-21T13:13:28;29.40;64.00
71367;DHT22;60030;52.274;8.040;2022-08-21T13:16:01;29.30;62.10
71367;DHT22;60030;52.274;8.040;2022-08-21T13:18:31;29.90;59.50
71367;DHT22;60030;52.274;8.040;2022-08-21T13:21:06;31.50;57.60
71367;DHT22;60030;52.274;8.040;2022-08-21T13:23:33;32.50;54.30
71367;DHT22;60030;52.274;8.040;2022-08-21T13:26:12;32.80;52.70
71367;DHT22;60030;52.274;8.040;2022-08-21T13:28:39;33.00;51.30
71367;DHT22;60030;52.274;8.040;2022-08-21T13:31:08;33.30;50.10
71367;DHT22;60030;52.274;8.040;2022-08-21T13:33:37;32.70;50.80
71367;DHT22;60030;52.274;8.040;2022-08-21T13:36:09;33.40;50.20
71367;DHT22;60030;52.274;8.040;2022-08-21T13:38:40;33.20;50.00
71367;DHT22;60030;52.274;8.040;2022-08-21T13:41:17;32.30;52.50
71367;DHT22;60030;52.274;8.040;2022-08-21T13:43:49;32.20;52.00
71367;DHT22;60030;52.274;8.040;2022-08-21T13:46:17;32.30;52.50
71367;DHT22;60030;52.274;8.040;2022-08-21T13:48:45;32.30;51.90
71367;DHT22;60030;52.274;8.040;2022-08-21T13:51:12;32.30;51.90
71367;DHT22;60030;52.274;8.040;2022-08-21T13:53:46;31.30;53.20
71367;DHT22;60030;52.274;8.040;2022-08-21T13:56:26;30.10;54.20
71367;DHT22;60030;52.274;8.040;2022-08-21T13:58:55;29.60;55.50
71367;DHT22;60030;52.274;8.040;2022-08-21T14:01:25;30.60;54.90
71367;DHT22;60030;52.274;8.040;2022-08-21T14:03:58;30.90;53.90
71367;DHT22;60030;52.274;8.040;2022-08-21T14:06:32;31.10;53.20
71367;DHT22;60030;52.274;8.040;2022-08-21T14:09:13;31.50;52.80
71367;DHT22;60030;52.274;8.040;2022-08-21T14:11:49;32.40;51.40
71367;DHT22;60030;52.274;8.040;2022-08-21T14:14:20;32.30;50.90
71367;DHT22;60030;52.274;8.040;2022-08-21T14:16:54;31.80;50.80
71367;DHT22;60030;52.274;8.040;2022-08-21T14:19:24;31.80;51.30
71367;DHT22;60030;52.274;8.040;2022-08-21T14:21:51;32.10;49.90
71367;DHT22;60030;52.274;8.040;2022-08-21T14:24:28;32.50;50.10
71367;DHT22;60030;52.274;8.040;2022-08-21T14:27:02;31.90;50.50
71367;DHT22;60030;52.274;8.040;2022-08-21T14:29:33;31.80;51.40
71367;DHT22;60030;52.274;8.040;2022-08-21T14:32:09;31.90;51.20
71367;DHT22;60030;52.274;8.040;2022-08-21T14:34:36;31.70;50.80
71367;DHT22;60030;52.274;8.040;2022-08-21T14:37:03;31.80;49.60
71367;DHT22;60030;52.274;8.040;2022-08-21T14:39:30;31.90;49.70
71367;DHT22;60030;52.274;8.040;2022-08-21T14:41:59;32.00;50.20
71367;DHT22;60030;52.274;8.040;2022-08-21T14:44:26;31.40;50.60
71367;DHT22;60030;52.274;8.040;2022-08-21T14:46:54;30.90;51.20
71367;DHT22;60030;52.274;8.040;2022-08-21T14:49:23;30.60;51.60
71367;DHT22;60030;52.274;8.040;2022-08-21T14:51:51;30.10;51.70
71367;DHT22;60030;52.274;8.040;2022-08-21T14:54:22;30.10;53.00
71367;DHT22;60030;52.274;8.040;2022-08-21T14:56:50;29.80;52.70
71367;DHT22;60030;52.274;8.040;2022-08-21T14:59:18;29.60;52.90
71367;DHT22;60030;52.274;8.040;2022-08-21T15:01:46;29.60;54.10
71367;DHT22;60030;52.274;8.040;2022-08-21T15:04:14;29.50;53.40
71367;DHT22;60030;52.274;8.040;2022-08-21T15:06:41;29.00;54.00
71367;DHT22;60030;52.274;8.040;2022-08-21T15:09:09;29.30;53.50
71367;DHT22;60030;52.274;8.040;2022-08-21T15:11:36;29.10;54.20
71367;DHT22;60030;52.274;8.040;2022-08-21T15:14:07;29.60;54.00
71367;DHT22;60030;52.274;8.040;2022-08-21T15:16:37;29.30;54.00
71367;DHT22;60030;52.274;8.040;2022-08-21T15:19:04;29.20;54.30
71367;DHT22;60030;52.274;8.040;2022-08-21T15:21:31;29.30;54.40
71367;DHT22;60030;52.274;8.040;2022-08-21T15:23:58;29.60;54.30
71367;DHT22;60030;52.274;8.040;2022-08-21T15:26:26;29.70;53.80
71367;DHT22;60030;52.274;8.040;2022-08-21T15:28:53;29.70;53.40
71367;DHT22;60030;52.274;8.040;2022-08-21T15:31:20;29.80;53.80
71367;DHT22;60030;52.274;8.040;2022-08-21T15:33:48;31.10;51.50
71367;DHT22;60030;52.274;8.040;2022-08-21T15:36:17;33.00;49.00
71367;DHT22;60030;52.274;8.040;2022-08-21T15:38:44;33.60;48.10
71367;DHT22;60030;52.274;8.040;2022-08-21T15:41:11;32.80;48.60
71367;DHT22;60030;52.274;8.040;2022-08-21T15:43:42;31.20;50.50
71367;DHT22;60030;52.274;8.040;2022-08-21T15:46:13;30.30;52.50
71367;DHT22;60030;52.274;8.040;2022-08-21T15:48:40;29.80;52.90
71367;DHT22;60030;52.274;8.040;2022-08-21T15:51:10;29.70;52.90